Terminal Aerodrome Forecast
Issued by NWS

Home | Current Version | Previous Version | Text Only | Print | Product List | Glossary Off
Versions: 1 2 3 4 5 6 7 8 9 10 11 12 13 14 15 16 17

000
FTUS43 KMPX 241821 CCA
TAFRNH
TAF COR
KRNH 241821Z 2418/2518 01016G25KT 5SM -SN BR BKN015
      TEMPO 2418/2422 2SM -SN BR BKN007
     FM242200 36014G23KT 4SM -SN OVC020
     FM250200 35014G23KT 6SM -SHSN OVC040
     FM250900 33012KT P6SM OVC050
     FM251400 32012KT P6SM SCT150=

USA.gov is the U.S. government's official web portal to all federal, state and local government web resources and services.